createdAt,value
2022-08-22T00:00:43.714Z,99839.77
2022-08-22T00:02:59.712Z,99827.14
2022-08-22T00:06:45.967Z,99837.92
2022-08-22T00:12:59.065Z,99840.36
2022-08-22T00:19:06.097Z,99845.89
2022-08-22T00:25:25.783Z,99845.42
2022-08-22T00:31:33.151Z,99847.63
2022-08-22T00:37:41.682Z,99848.08
2022-08-22T00:43:39.278Z,99847.95
2022-08-22T00:49:49.491Z,99845.77
2022-08-22T00:56:02.307Z,99846.98
2022-08-22T01:02:04.826Z,99848.74
2022-08-22T01:08:11.621Z,99851.91
2022-08-22T01:14:12.205Z,99855.23
2022-08-22T01:20:14.916Z,99857.88
2022-08-22T01:26:17.332Z,99860.27
2022-08-22T01:32:23.414Z,99869.00
2022-08-22T01:38:30.687Z,99867.06
2022-08-22T01:44:32.940Z,99870.05
2022-08-22T01:50:35.704Z,99866.98
2022-08-22T01:56:38.192Z,99864.88
2022-08-22T02:02:44.735Z,99859.62
2022-08-22T02:08:47.204Z,99853.20
2022-08-22T02:14:54.243Z,99856.08
2022-08-22T02:21:01.518Z,99859.83
2022-08-22T02:27:04.446Z,99861.70
2022-08-22T02:33:15.893Z,99868.02
2022-08-22T02:39:19.917Z,99869.17
2022-08-22T02:45:23.798Z,99863.30
2022-08-22T02:51:27.711Z,99865.34
2022-08-22T02:57:39.481Z,99864.81
2022-08-22T03:03:46.453Z,99859.14
2022-08-22T03:09:56.601Z,99864.73
2022-08-22T03:16:06.285Z,99870.69
2022-08-22T03:22:10.252Z,99876.75
2022-08-22T03:28:32.585Z,99880.39
2022-08-22T03:34:34.739Z,99885.36
2022-08-22T03:40:38.820Z,99886.50
2022-08-22T03:46:58.184Z,99885.36
2022-08-22T03:53:00.607Z,99898.97
2022-08-22T03:59:19.794Z,99902.95
2022-08-22T04:05:22.707Z,99897.77
2022-08-22T04:11:31.303Z,99903.73
2022-08-22T04:17:46.154Z,99911.52
2022-08-22T04:23:48.605Z,99914.64
2022-08-22T04:29:58.632Z,99913.77
2022-08-22T04:36:08.386Z,99914.21
2022-08-22T04:42:30.781Z,99913.50
2022-08-22T04:48:32.172Z,99922.65
2022-08-22T04:54:44.968Z,99929.67
2022-08-22T05:00:49.026Z,99931.72
2022-08-22T05:06:51.807Z,99938.27
2022-08-22T05:12:55.758Z,99942.80
2022-08-22T05:18:59.780Z,99948.00
2022-08-22T05:25:03.978Z,99945.92
2022-08-22T05:31:08.138Z,99951.17
2022-08-22T05:37:12.299Z,99957.58
2022-08-22T05:43:16.245Z,99957.08
2022-08-22T05:49:20.267Z,99959.15
2022-08-22T05:55:30.264Z,99957.93
2022-08-22T06:01:27.342Z,99961.05
2022-08-22T06:07:31.499Z,99961.50
2022-08-22T06:13:41.750Z,99962.58
2022-08-22T06:19:46.106Z,99962.40
2022-08-22T06:25:52.891Z,99964.19
2022-08-22T06:32:00.337Z,99968.55
2022-08-22T06:38:04.228Z,99963.83
2022-08-22T06:44:08.178Z,99964.75
2022-08-22T06:50:13.544Z,99974.46
2022-08-22T06:56:17.876Z,99970.42
2022-08-22T07:02:33.889Z,99960.91
2022-08-22T07:08:39.268Z,99961.02
2022-08-22T07:14:43.440Z,99965.26
2022-08-22T07:20:47.652Z,99961.13
2022-08-22T07:26:51.710Z,99968.48
2022-08-22T07:32:52.611Z,99975.11
2022-08-22T07:38:56.709Z,99975.60
2022-08-22T07:45:01.019Z,99980.17
2022-08-22T07:51:05.020Z,99983.75
2022-08-22T07:57:08.974Z,99991.79
2022-08-22T08:03:11.691Z,99986.83
2022-08-22T08:09:00.855Z,99989.12
2022-08-22T08:15:04.795Z,99992.02
2022-08-22T08:21:08.632Z,99997.17
2022-08-22T08:27:10.712Z,99997.54
2022-08-22T08:33:24.975Z,99999.38
2022-08-22T08:39:24.049Z,99999.63
2022-08-22T08:45:22.132Z,100000.08
2022-08-22T08:51:18.648Z,100003.67
2022-08-22T08:57:13.303Z,100003.55
2022-08-22T09:03:30.809Z,100004.36
2022-08-22T09:09:33.900Z,100000.77
2022-08-22T09:15:55.055Z,100003.48
2022-08-22T09:22:22.184Z,100006.95
2022-08-22T09:28:29.740Z,100003.80
2022-08-22T09:34:33.879Z,100008.29
2022-08-22T09:40:30.427Z,100006.98
2022-08-22T09:46:37.241Z,100005.84
2022-08-22T09:52:50.583Z,100004.35
2022-08-22T09:58:54.989Z,100004.42
2022-08-22T10:04:58.772Z,100007.43
2022-08-22T10:11:08.636Z,100007.64
2022-08-22T10:17:22.576Z,100011.07
2022-08-22T10:23:29.648Z,100010.54
2022-08-22T10:29:39.761Z,100011.67
2022-08-22T10:35:49.423Z,100016.12
2022-08-22T10:41:53.466Z,100017.17
2022-08-22T10:48:01.228Z,100015.95
2022-08-22T10:53:57.851Z,100016.92
2022-08-22T11:00:03.334Z,100014.67
2022-08-22T11:06:00.744Z,100012.16
2022-08-22T11:12:05.336Z,100007.17
2022-08-22T11:18:12.980Z,100003.04
2022-08-22T11:24:30.013Z,100002.42
2022-08-22T11:30:44.508Z,100008.16
2022-08-22T11:37:01.893Z,100010.44
2022-08-22T11:43:06.573Z,100008.21
2022-08-22T11:49:25.662Z,100011.95
2022-08-22T11:55:33.253Z,100014.15
2022-08-22T12:01:47.880Z,100010.35
2022-08-22T12:08:03.014Z,100006.41
2022-08-22T12:14:10.205Z,100003.81
2022-08-22T12:20:16.882Z,99995.95
2022-08-22T12:26:22.151Z,99993.67
2022-08-22T12:32:45.752Z,99996.27
2022-08-22T12:38:48.166Z,99992.88
2022-08-22T12:44:46.519Z,99993.96
2022-08-22T12:50:50.563Z,99989.98
2022-08-22T12:56:51.049Z,99988.86
2022-08-22T13:02:52.053Z,99988.02
2022-08-22T13:08:56.247Z,99986.74
2022-08-22T13:14:51.185Z,99986.30
2022-08-22T13:20:55.339Z,99985.85
2022-08-22T13:27:03.839Z,99987.45
2022-08-22T13:33:15.432Z,99985.80
2022-08-22T13:39:20.556Z,99975.27
2022-08-22T13:45:23.605Z,99969.35
2022-08-22T13:51:16.737Z,99965.92
2022-08-22T13:57:23.927Z,99966.58
2022-08-22T14:03:40.503Z,99960.65
2022-08-22T14:09:32.683Z,99958.88
2022-08-22T14:15:44.733Z,99953.49
2022-08-22T14:21:47.862Z,99956.45
2022-08-22T14:27:45.522Z,99956.17
2022-08-22T14:33:54.704Z,99959.04
2022-08-22T14:39:55.559Z,99964.61
2022-08-22T14:46:04.298Z,99962.67
2022-08-22T14:52:02.618Z,99955.95
2022-08-22T14:58:03.298Z,99950.90
2022-08-22T15:04:18.867Z,99948.61
2022-08-22T15:10:22.913Z,99939.62
2022-08-22T15:16:29.965Z,99936.96
2022-08-22T15:22:28.748Z,99938.33
2022-08-22T15:28:33.747Z,99941.98
2022-08-22T15:35:03.470Z,99932.29
2022-08-22T15:41:08.067Z,99927.95
2022-08-22T15:47:05.873Z,99927.70
2022-08-22T15:53:06.583Z,99926.39
2022-08-22T15:59:12.165Z,99925.32
2022-08-22T16:05:16.271Z,99927.77
2022-08-22T16:11:16.980Z,99928.59
2022-08-22T16:17:17.617Z,99929.08
2022-08-22T16:23:36.395Z,99927.04
2022-08-22T16:29:41.583Z,99929.45
2022-08-22T16:35:46.029Z,99941.36
2022-08-22T16:41:42.001Z,99944.80
2022-08-22T16:47:58.378Z,99943.85
2022-08-22T16:54:02.813Z,99943.48
2022-08-22T17:00:09.567Z,99950.91
2022-08-22T17:06:13.713Z,99959.59
2022-08-22T17:12:15.890Z,99963.95
2022-08-22T17:18:25.764Z,99967.94
2022-08-22T17:24:34.083Z,99973.36
2022-08-22T17:30:41.546Z,99979.87
2022-08-22T17:36:38.781Z,99982.01
2022-08-22T17:42:42.842Z,99991.17
2022-08-22T17:48:51.668Z,100003.70
2022-08-22T17:54:55.705Z,100009.09
2022-08-22T18:00:59.723Z,100015.30
2022-08-22T18:07:05.638Z,100018.52
2022-08-22T18:13:12.673Z,100023.92
2022-08-22T18:19:25.472Z,100020.65
2022-08-22T18:25:29.671Z,100029.38
2022-08-22T18:31:46.155Z,100031.71
2022-08-22T18:37:53.190Z,100025.53
2022-08-22T18:44:00.508Z,100021.33
2022-08-22T18:50:04.519Z,100022.05
2022-08-22T18:56:08.659Z,100019.50
2022-08-22T19:02:15.933Z,100026.12
2022-08-22T19:08:29.139Z,100027.02
2022-08-22T19:14:33.034Z,100027.73
2022-08-22T19:20:38.525Z,100022.98
2022-08-22T19:26:41.208Z,100019.23
2022-08-22T19:32:45.521Z,100019.11
2022-08-22T19:38:43.554Z,100023.28
2022-08-22T19:44:40.309Z,100027.10
2022-08-22T19:50:50.107Z,100029.30
2022-08-22T19:57:06.336Z,100035.24
2022-08-22T20:03:13.336Z,100042.61
2022-08-22T20:09:16.108Z,100044.72
2022-08-22T20:15:20.054Z,100049.70
2022-08-22T20:21:17.710Z,100048.55
2022-08-22T20:27:21.579Z,100049.36
2022-08-22T20:33:25.509Z,100041.63
2022-08-22T20:39:29.430Z,100036.14
2022-08-22T20:45:33.279Z,100031.17
2022-08-22T20:51:27.225Z,100033.55
2022-08-22T20:57:31.231Z,100026.17
2022-08-22T21:03:29.053Z,100029.73
2022-08-22T21:09:31.679Z,100027.71
2022-08-22T21:15:28.406Z,100021.98
2022-08-22T21:21:31.099Z,100022.38
2022-08-22T21:27:37.744Z,100017.44
2022-08-22T21:33:41.700Z,100018.98
2022-08-22T21:39:45.639Z,100015.62
2022-08-22T21:45:49.735Z,100010.59
2022-08-22T21:52:12.185Z,100005.05
2022-08-22T21:58:30.968Z,100002.86
2022-08-22T22:04:40.264Z,100006.14
2022-08-22T22:10:37.101Z,100003.65
2022-08-22T22:16:33.860Z,99997.48
2022-08-22T22:22:38.167Z,99995.59
2022-08-22T22:28:43.990Z,99989.19
2022-08-22T22:34:29.570Z,99971.52
2022-08-22T22:40:24.152Z,99971.54
2022-08-22T22:46:19.615Z,99980.55
2022-08-22T22:52:05.623Z,99987.10
2022-08-22T22:58:15.554Z,99990.06
2022-08-22T23:04:09.418Z,99993.73
2022-08-22T23:10:13.505Z,99981.25
2022-08-22T23:16:16.023Z,99982.27
2022-08-22T23:22:18.806Z,99985.88
2022-08-22T23:28:22.782Z,99980.87
2022-08-22T23:34:16.577Z,99973.73
2022-08-22T23:40:29.667Z,99973.94
2022-08-22T23:46:33.645Z,99987.48
2022-08-22T23:52:31.508Z,100003.73
2022-08-22T23:58:35.430Z,100016.11
